Terminal Aerodrome Forecast
Issued by NWS

Home | Current Version | Previous Version | Text Only | Print | Product List | Glossary On
Versions: 1 2 3 4 5 6 7 8 9 10 11 12 13 14
457
FTPA31 PHFO 290547
TAFHKO
TAF
PHKO 290547Z 2906/3006 04014G24KT P6SM BKN050
      TEMPO 2906/2910 24011KT
     FM291000 05011KT P6SM SCT050
     FM292000 20011KT P6SM FEW025 BKN050
     FM300500 05011KT P6SM SCT025 SCT050=

USA.gov is the U.S. government's official web portal to all federal, state and local government web resources and services.